Latest Weather Observations for Scherger

IDQ60801

Issued at 1:02 am EST Tuesday 26 January 2021 (issued every 10 minutes, with the page automatically refreshed every 10 minutes)

About weather observations | Map of weather stations | Latest weather observations for QLD | Other Formats
Station Details ID: 027075 Name: SCHERGER RAAF Lat: -12.62 Lon: 142.09 Height: 39.34 m
Data from the previous 72 hours. | See also: Recent months at Scherger
Date/Time
EST
Temp
°C
App
Temp
°C
Dew
Point
°C
Rel
Hum
%
Delta-T
°C
Wind Press
QNH
hPa
Press
MSL
hPa
Rain since
9am
mm
Dir  Spd
km/h
Gust
km/h
Spd
kts
Gust
kts
26/01:00am 25.5 31.7 25.2 98 0.2 NNE 2 7 1 4 1004.9 1004.6 9.0
26/12:30am 25.5 32.0 25.0 97 0.3 CALM 0 7 0 4 1005.2 1004.9 9.0
26/12:00am 25.6 31.4 25.1 97 0.3 NE 4 9 2 5 1005.7 1005.4 9.0
 
Date/Time
EST
Temp
°C
App
Temp
°C
Dew
Point
°C
Rel
Hum
%
Delta-T
°C
Wind Press
QNH
hPa
Press
MSL
hPa
Rain since
9am
mm
Dir  Spd
km/h
Gust
km/h
Spd
kts
Gust
kts
25/11:30pm 25.6 31.0 25.1 97 0.3 NNE 6 7 3 4 1005.9 1005.6 9.0
25/11:00pm 25.6 32.1 25.1 97 0.3 CALM 0 0 0 0 1006.3 1006.0 9.0
25/10:36pm 25.5 31.7 24.6 95 0.6 CALM 0 0 0 0 1006.5 1006.2 9.0
25/10:30pm 25.6 31.9 24.7 95 0.6 CALM 0 4 0 2 1006.5 1006.2 9.0
25/10:00pm 25.8 30.6 25.1 96 0.5 NW 9 20 5 11 1006.4 1006.1 7.2
25/09:30pm 25.9 31.9 24.9 94 0.7 NNW 2 11 1 6 1005.8 1005.5 5.2
25/09:08pm 25.9 31.7 25.2 96 0.5 NW 4 11 2 6 1005.7 1005.4 5.0
25/09:00pm 26.0 31.4 25.1 95 0.6 NNW 6 11 3 6 1005.4 1005.1 2.4
25/08:30pm 25.9 32.4 25.0 95 0.6 CALM 0 0 0 0 1005.1 1004.8 2.2
25/08:00pm 25.9 32.0 25.0 95 0.6 NE 2 9 1 5 1005.0 1004.7 2.0
25/07:30pm 25.8 32.1 24.8 94 0.7 CALM 0 6 0 3 1004.8 1004.5 2.0
25/07:00pm 25.9 30.7 24.5 92 1.0 NNE 7 11 4 6 1004.6 1004.3 2.0
25/06:30pm 26.3 31.4 24.9 92 1.0 NNE 7 11 4 6 1004.6 1004.3 1.8
25/06:29pm 26.3 31.4 24.9 92 1.0 NNE 7 11 4 6 1004.5 1004.2 1.8
25/06:00pm 26.4 30.8 24.4 89 1.4 N 9 13 5 7 1004.4 1004.1 1.8
25/05:30pm 27.1 31.4 24.2 84 2.0 N 9 17 5 9 1004.3 1004.0 1.8
25/05:11pm 27.1 30.7 23.8 82 2.3 N 11 20 6 11 1004.0 1003.7 1.8
25/05:00pm 27.1 30.7 23.8 82 2.3 N 11 17 6 9 1004.1 1003.8 1.8
25/04:30pm 27.6 31.1 23.6 79 2.7 N 11 20 6 11 1003.9 1003.6 1.8
25/04:00pm 27.7 31.5 23.5 78 2.9 N 9 15 5 8 1004.2 1003.9 1.8
25/03:30pm 27.5 31.0 23.5 79 2.7 N 11 19 6 10 1004.3 1004.0 1.8
25/03:00pm 28.1 32.3 24.1 79 2.8 N 9 13 5 7 1004.4 1004.1 1.8
25/02:30pm 28.4 31.5 23.5 75 3.4 N 13 20 7 11 1004.6 1004.3 1.8
25/02:00pm 28.4 30.2 23.3 74 3.5 NNW 19 26 10 14 1005.0 1004.7 1.8
25/01:30pm 28.0 31.5 24.2 80 2.6 N 13 20 7 11 1005.6 1005.3 1.8
25/01:09pm 27.8 31.4 23.8 79 2.8 N 11 24 6 13 1006.1 1005.8 1.8
25/01:00pm 28.1 32.2 23.9 78 2.9 N 9 17 5 9 1006.4 1006.1 1.8
25/12:30pm 27.9 32.2 24.3 81 2.5 NNE 9 17 5 9 1006.7 1006.4 1.8
25/12:00pm 27.5 31.3 24.7 85 2.0 N 13 19 7 10 1007.4 1007.1 1.6
25/11:30am 27.0 30.7 24.5 86 1.7 N 13 20 7 11 1007.6 1007.3 1.6
25/11:00am 26.8 31.3 24.6 88 1.5 N 9 15 5 8 1007.7 1007.4 1.6
25/10:30am 26.3 30.7 25.1 93 0.8 NNE 11 19 6 10 1008.0 1007.7 1.6
25/10:00am 25.7 30.3 24.7 94 0.7 NNE 9 15 5 8 1008.1 1007.8 1.6
25/09:30am 25.6 30.2 24.7 95 0.6 NNE 9 15 5 8 1007.8 1007.5 1.4
25/09:00am 25.6 30.5 24.6 94 0.7 NNE 7 13 4 7 1007.9 1007.6 19.2
25/08:30am 26.0 29.8 24.0 89 1.4 NNE 11 17 6 9 1007.6 1007.3 18.6
25/08:18am 26.0 30.4 24.4 91 1.1 NNE 9 15 5 8 1007.4 1007.1 18.6
25/08:00am 25.4 29.5 24.0 92 1.0 NE 9 15 5 8 1007.2 1006.9 18.6
25/07:39am 25.0 29.2 24.1 95 0.6 NE 9 15 5 8 1006.9 1006.6 18.6
25/07:30am 24.8 29.4 24.1 96 0.5 NE 7 15 4 8 1006.8 1006.5 18.6
25/07:00am 24.5 29.0 24.0 97 0.3 ENE 7 11 4 6 1006.6 1006.3 18.6
25/06:30am 24.4 28.9 23.9 97 0.3 NE 7 17 4 9 1006.1 1005.8 18.6
25/06:08am 24.4 28.9 23.9 97 0.3 E 7 11 4 6 1005.9 1005.6 18.6
25/06:00am 24.3 28.9 23.8 97 0.3 ENE 6 11 3 6 1005.7 1005.4 18.6
25/05:30am 24.3 28.7 23.8 97 0.3 ENE 7 15 4 8 1005.7 1005.4 17.4
25/05:00am 24.2 28.7 23.7 97 0.3 E 6 13 3 7 1005.0 1004.7 17.4
25/04:30am 24.2 28.5 23.7 97 0.3 ENE 7 13 4 7 1005.2 1004.9 17.4
25/04:09am 24.2 28.5 23.7 97 0.3 NE 7 11 4 6 1005.3 1005.0 17.4
25/04:00am 24.3 28.9 23.8 97 0.3 ENE 6 11 3 6 1005.2 1004.9 17.4
25/03:30am 24.3 28.9 23.8 97 0.3 ENE 6 9 3 5 1005.3 1005.0 17.4
25/03:01am 24.4 28.9 23.7 96 0.5 NE 6 9 3 5 1005.6 1005.3 17.0
25/03:00am 24.4 28.9 23.7 96 0.5 NE 6 9 3 5 1005.6 1005.3 17.0
25/02:30am 24.4 28.7 23.7 96 0.5 NE 7 13 4 7 1005.8 1005.5 16.8
25/02:23am 24.4 28.8 23.5 95 0.6 ENE 6 13 3 7 1005.9 1005.6 16.8
25/02:06am 24.4 28.9 23.7 96 0.5 E 6 11 3 6 1006.1 1005.8 16.8
25/02:00am 24.3 28.8 23.6 96 0.5 ENE 6 11 3 6 1006.2 1005.9 16.8
25/01:30am 24.3 28.6 23.6 96 0.5 E 7 11 4 6 1006.4 1006.1 16.8
25/01:00am 24.3 28.6 23.6 96 0.5 E 7 11 4 6 1006.7 1006.4 16.8
25/12:30am 24.3 28.8 23.6 96 0.5 ESE 6 11 3 6 1007.3 1007.0 16.8
25/12:00am 24.4 28.8 23.5 95 0.6 ESE 6 9 3 5 1007.6 1007.3 16.8
 
Date/Time
EST
Temp
°C
App
Temp
°C
Dew
Point
°C
Rel
Hum
%
Delta-T
°C
Wind Press
QNH
hPa
Press
MSL
hPa
Rain since
9am
mm
Dir  Spd
km/h
Gust
km/h
Spd
kts
Gust
kts
24/11:30pm 24.4 29.2 23.5 95 0.6 ESE 4 9 2 5 1007.9 1007.6 16.8
24/11:00pm 24.5 28.8 23.6 95 0.6 ESE 7 11 4 6 1008.1 1007.8 16.8
24/10:30pm 24.6 29.3 23.9 96 0.5 ESE 6 9 3 5 1007.9 1007.6 16.8
24/10:18pm 24.7 29.4 24.0 96 0.5 E 6 9 3 5 1007.8 1007.5 16.8
24/10:00pm 24.7 29.4 24.0 96 0.5 E 6 9 3 5 1007.8 1007.5 16.8
24/09:30pm 24.7 29.8 24.0 96 0.5 ESE 4 9 2 5 1007.7 1007.4 16.8
24/09:25pm 24.7 29.8 24.0 96 0.5 SE 4 13 2 7 1007.6 1007.3 16.8
24/09:00pm 24.7 29.2 24.0 96 0.5 ESE 7 11 4 6 1007.5 1007.2 16.8
24/08:30pm 24.7 30.4 23.8 95 0.6 CALM 0 0 0 0 1007.6 1007.3 16.4
24/08:00pm 24.7 29.3 23.8 95 0.6 SE 6 9 3 5 1007.2 1006.9 16.2
24/07:45pm 24.8 29.5 23.9 95 0.6 SE 6 7 3 4 1007.1 1006.8 16.2
24/07:30pm 24.8 30.2 23.8 94 0.7 ENE 2 7 1 4 1007.1 1006.8 16.2
24/07:00pm 25.0 30.8 24.0 94 0.7 CALM 0 9 0 5 1006.9 1006.6 16.2
24/06:42pm 24.9 29.4 23.7 93 0.8 NNE 6 11 3 6 1006.6 1006.3 16.2
24/06:30pm 24.9 29.4 23.7 93 0.8 ENE 6 11 3 6 1006.3 1006.0 16.2
24/06:22pm 25.0 29.6 23.8 93 0.8 NE 6 11 3 6 1006.1 1005.8 16.2
24/06:00pm 25.0 29.0 23.8 93 0.8 NE 9 13 5 7 1005.7 1005.4 16.2
24/05:30pm 25.1 29.6 23.7 92 1.0 NE 6 13 3 7 1005.5 1005.2 16.2
24/05:00pm 25.5 30.0 23.9 91 1.1 E 7 17 4 9 1005.3 1005.0 16.0
24/04:30pm 25.5 30.1 24.1 92 1.0 ENE 7 11 4 6 1005.4 1005.1 16.0
24/04:00pm 25.6 29.6 23.8 90 1.2 ENE 9 13 5 7 1005.4 1005.1 16.0
24/03:30pm 26.1 30.7 24.1 89 1.4 NE 7 15 4 8 1005.7 1005.4 16.0
24/03:17pm 26.1 30.7 24.1 89 1.4 NE 7 15 4 8 1005.7 1005.4 16.0
24/03:07pm 26.2 30.6 24.4 90 1.2 ENE 9 15 5 8 1005.9 1005.6 16.0
24/03:00pm 26.0 30.3 24.2 90 1.2 NE 9 15 5 8 1005.8 1005.5 16.0
24/02:38pm 25.8 30.5 24.9 95 0.6 NE 9 15 5 8 1006.1 1005.8 16.0
24/02:30pm 25.4 29.8 24.4 94 0.7 NE 9 15 5 8 1006.2 1005.9 16.0
24/02:00pm 24.6 28.2 23.0 91 1.1 NE 9 20 5 11 1006.5 1006.2 15.0
24/01:30pm 26.0 31.6 24.2 90 1.2 ENE 2 7 1 4 1006.8 1006.5 9.8
24/01:00pm 26.1 30.1 23.8 87 1.6 NNE 9 17 5 9 1006.8 1006.5 5.8
24/12:30pm 29.9 34.5 24.8 74 3.6 NE 9 17 5 9 1006.9 1006.6 0.2
24/12:00pm 29.2 33.6 24.5 76 3.3 NE 9 19 5 10 1007.4 1007.1 0.2
24/11:30am 28.7 33.1 24.5 78 2.9 ENE 9 17 5 9 1007.8 1007.5 0.0
24/11:04am 27.5 32.1 24.7 85 2.0 E 9 13 5 7 1008.3 1008.0 0.0
24/11:00am 27.4 32.4 24.8 86 1.8 ENE 7 13 4 7 1008.4 1008.1 0.0
24/10:30am 27.4 32.3 24.7 85 1.9 ENE 7 13 4 7 1008.9 1008.6 0.0
24/10:21am 27.1 31.4 24.2 84 2.0 ENE 9 17 5 9 1009.1 1008.8 0.0
24/10:02am 27.0 31.3 24.3 85 1.9 ENE 9 17 5 9 1008.9 1008.6 0.0
24/10:00am 27.0 30.9 24.3 85 1.9 ENE 11 17 6 9 1008.9 1008.6 0.0
24/09:30am 26.9 31.3 24.4 86 1.7 ENE 9 15 5 8 1008.9 1008.6 0.0
24/09:00am 26.6 31.1 24.6 89 1.4 NNE 9 17 5 9 1008.7 1008.4 72.4
24/08:30am 25.9 30.5 24.7 93 0.8 NE 9 13 5 7 1008.5 1008.2 72.4
24/08:00am 25.3 30.6 25.0 98 0.2 NE 6 9 3 5 1008.1 1007.8 72.4
24/07:30am 24.7 29.7 24.5 99 0.1 NE 6 11 3 6 1008.0 1007.7 72.4
24/07:06am 24.6 29.5 24.4 99 0.1 NE 6 9 3 5 1008.0 1007.7 72.2
24/07:00am 24.5 29.4 24.3 99 0.1 NNE 6 11 3 6 1008.0 1007.7 72.2
24/06:30am 24.4 29.6 24.2 99 0.1 N 4 7 2 4 1007.6 1007.3 72.2
24/06:00am 24.3 30.1 24.0 98 0.2 CALM 0 0 0 0 1007.1 1006.8 72.2
24/05:30am 24.3 30.1 24.0 98 0.2 CALM 0 0 0 0 1006.9 1006.6 72.2
24/05:00am 24.4 30.3 24.1 98 0.2 CALM 0 6 0 3 1006.4 1006.1 72.2
24/04:30am 24.4 29.9 24.1 98 0.2 ENE 2 6 1 3 1006.5 1006.2 72.2
24/04:00am 24.3 30.1 24.0 98 0.2 CALM 0 6 0 3 1006.5 1006.2 72.2
24/03:30am 24.3 30.1 24.0 98 0.2 CALM 0 0 0 0 1006.8 1006.5 72.2
24/03:00am 24.3 30.1 24.0 98 0.2 CALM 0 0 0 0 1007.1 1006.8 72.2
24/02:30am 24.4 30.3 24.1 98 0.2 CALM 0 0 0 0 1007.3 1007.0 72.2
24/02:26am 24.4 30.3 24.1 98 0.2 CALM 0 0 0 0 1007.4 1007.1 72.2
24/02:00am 24.4 30.3 24.1 98 0.2 CALM 0 6 0 3 1007.5 1007.2 72.2
24/01:30am 24.5 30.5 24.2 98 0.2 CALM 0 0 0 0 1007.8 1007.5 72.2
24/01:20am 24.4 30.3 24.1 98 0.2 CALM 0 0 0 0 1008.0 1007.7 72.2
24/01:00am 24.5 30.3 24.0 97 0.3 CALM 0 0 0 0 1008.1 1007.8 72.2
24/12:30am 24.5 30.5 24.2 98 0.2 CALM 0 0 0 0 1008.6 1008.3 72.2
24/12:00am 24.6 30.5 24.1 97 0.3 CALM 0 0 0 0 1008.9 1008.6 72.2
 
Date/Time
EST
Temp
°C
App
Temp
°C
Dew
Point
°C
Rel
Hum
%
Delta-T
°C
Wind Press
QNH
hPa
Press
MSL
hPa
Rain since
9am
mm
Dir  Spd
km/h
Gust
km/h
Spd
kts
Gust
kts
23/11:30pm 24.5 30.3 24.0 97 0.3 CALM 0 0 0 0 1009.0 1008.7 72.2
23/11:00pm 24.5 30.3 24.0 97 0.3 CALM 0 0 0 0 1008.9 1008.6 72.2
23/10:30pm 24.6 30.5 24.1 97 0.3 CALM 0 0 0 0 1008.9 1008.6 72.2
23/10:00pm 24.6 29.7 24.1 97 0.3 SSE 4 7 2 4 1009.1 1008.8 72.0
23/09:30pm 24.6 29.4 24.1 97 0.3 S 6 9 3 5 1009.2 1008.9 72.0
23/09:00pm 24.4 28.9 23.7 96 0.5 SSE 6 9 3 5 1009.1 1008.8 71.6
23/08:30pm 24.4 28.9 23.9 97 0.3 SE 7 11 4 6 1008.9 1008.6 71.2
23/08:00pm 24.4 29.4 23.9 97 0.3 SE 4 7 2 4 1008.9 1008.6 70.2
23/07:30pm 24.4 29.8 23.9 97 0.3 E 2 7 1 4 1008.8 1008.5 69.0
23/07:00pm 24.5 29.1 23.8 96 0.5 E 6 9 3 5 1008.4 1008.1 68.0
23/06:30pm 24.6 29.7 24.1 97 0.3 E 4 7 2 4 1008.0 1007.7 67.0
23/06:00pm 24.8 30.4 24.3 97 0.3 ENE 2 9 1 5 1007.3 1007.0 64.6
23/05:40pm 24.7 29.3 24.2 97 0.3 ENE 7 11 4 6 1007.0 1006.7 63.4
23/05:30pm 24.8 29.8 24.5 98 0.2 ENE 6 13 3 7 1007.0 1006.7 62.6
23/05:25pm 24.8 29.6 24.5 98 0.2 ENE 7 13 4 7 1007.0 1006.7 62.4
23/05:00pm 24.5 29.6 24.0 97 0.3 ENE 4 9 2 5 1006.8 1006.5 60.4
23/04:30pm 24.5 30.0 24.0 97 0.3 ESE 2 7 1 4 1006.7 1006.4 57.6
23/04:00pm 24.4 28.7 23.7 96 0.5 NNE 7 13 4 7 1006.5 1006.2 54.8
23/03:56pm 24.4 28.7 23.7 96 0.5 NNE 7 15 4 8 1006.5 1006.2 53.8
23/03:30pm 24.8 28.6 24.1 96 0.5 N 11 15 6 8 1006.6 1006.3 34.4
23/03:18pm 25.1 28.9 24.1 94 0.7 NNW 11 20 6 11 1006.7 1006.4 14.8
23/03:03pm 25.2 28.6 23.4 90 1.2 E 11 17 6 9 1005.7 1005.4 5.4
23/03:00pm 25.4 28.9 23.6 90 1.2 E 11 17 6 9 1005.6 1005.3 3.0
23/02:30pm 26.5 29.4 23.2 82 2.2 E 13 22 7 12 1005.9 1005.6 0.6
23/02:27pm 26.7 29.5 23.0 80 2.5 E 13 22 7 12 1005.9 1005.6 0.6
23/02:23pm 27.1 29.4 22.7 77 3.0 ENE 15 22 8 12 1006.0 1005.7 0.6
23/02:00pm 32.1 36.7 24.2 63 5.5 NNW 7 13 4 7 1005.6 1005.3 0.6
23/01:30pm 29.4 35.1 23.8 72 3.9 CALM 0 0 0 0 1006.1 1005.8 0.6
23/01:00pm 30.9 35.1 24.1 67 4.7 N 9 15 5 8 1006.7 1006.4 0.2
23/12:30pm 30.8 34.9 24.0 67 4.7 ENE 9 15 5 8 1007.0 1006.7 0.2
23/12:00pm 31.0 35.0 24.4 68 4.6 NE 11 17 6 9 1007.3 1007.0 0.2
23/11:30am 29.9 34.8 25.2 76 3.3 ENE 9 15 5 8 1007.9 1007.6 0.2
23/11:00am 28.7 33.4 24.3 77 3.1 NNE 7 13 4 7 1008.3 1008.0 0.2
23/10:49am 28.9 34.0 24.9 79 2.8 NNE 7 15 4 8 1008.4 1008.1 0.2
23/10:37am 28.2 32.6 24.4 80 2.6 NNE 9 11 5 6 1008.6 1008.3 0.0
23/10:30am 28.1 32.9 24.5 81 2.5 N 7 11 4 6 1008.7 1008.4 0.0
23/10:29am 28.1 32.9 24.5 81 2.5 N 7 11 4 6 1008.8 1008.5 0.0
23/10:00am 27.9 33.4 25.3 86 1.8 NE 6 9 3 5 1009.0 1008.7 0.0
23/09:30am 26.7 32.1 24.5 88 1.5 NNW 4 7 2 4 1009.3 1009.0 0.0
23/09:00am 26.1 31.5 24.5 91 1.1 ENE 4 9 2 5 1009.1 1008.8 56.0
23/08:30am 25.5 30.8 24.3 93 0.8 E 4 11 2 6 1008.8 1008.5 56.0
23/08:00am 25.1 30.0 24.4 96 0.5 ENE 6 11 3 6 1008.4 1008.1 56.0
23/07:31am 24.7 29.6 24.4 98 0.2 NNE 6 7 3 4 1008.0 1007.7 56.0
23/07:30am 24.7 29.6 24.4 98 0.2 NNE 6 9 3 5 1008.0 1007.7 56.0
23/07:00am 24.2 30.0 23.9 98 0.2 CALM 0 0 0 0 1007.8 1007.5 56.0
23/06:30am 23.9 29.4 23.4 97 0.3 CALM 0 0 0 0 1007.1 1006.8 56.0
23/06:00am 23.9 29.4 23.4 97 0.3 CALM 0 0 0 0 1006.7 1006.4 56.0
23/05:37am 23.9 29.4 23.4 97 0.3 CALM 0 0 0 0 1006.4 1006.1 56.0
23/05:30am 23.9 29.4 23.4 97 0.3 CALM 0 0 0 0 1006.4 1006.1 56.0
23/05:00am 24.1 28.7 23.8 98 0.2 ENE 6 9 3 5 1006.3 1006.0 56.0
23/04:30am 24.2 29.2 23.9 98 0.2 ENE 4 7 2 4 1006.5 1006.2 56.0
23/04:00am 24.2 29.9 23.7 97 0.3 CALM 0 0 0 0 1006.5 1006.2 56.0
23/03:49am 24.1 29.7 23.6 97 0.3 CALM 0 0 0 0 1006.5 1006.2 56.0
23/03:30am 24.1 29.8 23.8 98 0.2 CALM 0 0 0 0 1006.7 1006.4 56.0
23/03:28am 24.1 29.7 23.6 97 0.3 CALM 0 0 0 0 1006.7 1006.4 56.0
23/03:00am 24.1 29.8 23.8 98 0.2 CALM 0 0 0 0 1006.6 1006.3 56.0
23/02:40am 24.1 29.8 23.8 98 0.2 CALM 0 0 0 0 1006.7 1006.4 56.0
23/02:30am 24.1 29.8 23.8 98 0.2 CALM 0 0 0 0 1006.8 1006.5 56.0
23/02:00am 24.2 30.0 23.9 98 0.2 CALM 0 0 0 0 1007.1 1006.8 56.0
23/01:30am 24.0 28.8 23.5 97 0.3 NW 4 7 2 4 1007.6 1007.3 56.0

Other formats

Comma delimited format used in spreadsheet applications
http://www.bom.gov.au/fwo/IDQ60801/IDQ60801.94171.axf

JavaScript Object Notation format (JSON) in row-major order
http://www.bom.gov.au/fwo/IDQ60801/IDQ60801.94171.json

Data quality

Most of these data are generated automatically and are frequently updated. Quality checks on data are not normally performed. It is possible for incorrect values to appear. Refer to information at About Latest Weather Observations and please check the disclaimer before using these data.